sensor_id;sensor_type;location;lat;lon;timestamp;P1;durP1;ratioP1;P2;durP2;ratioP2
37284;SDS011;23172;53.550;9.964;2022-09-17T00:00:00;19.43;;;8.50;;
37284;SDS011;23172;53.550;9.964;2022-09-17T00:05:03;17.95;;;6.32;;
37284;SDS011;23172;53.550;9.964;2022-09-17T00:10:07;15.73;;;5.57;;
37284;SDS011;23172;53.550;9.964;2022-09-17T00:15:09;20.80;;;10.63;;
37284;SDS011;23172;53.550;9.964;2022-09-17T00:20:11;15.32;;;7.32;;
37284;SDS011;23172;53.550;9.964;2022-09-17T00:25:14;20.10;;;9.70;;
37284;SDS011;23172;53.550;9.964;2022-09-17T00:30:16;15.60;;;6.50;;
37284;SDS011;23172;53.550;9.964;2022-09-17T00:35:18;16.38;;;7.57;;
37284;SDS011;23172;53.550;9.964;2022-09-17T00:40:21;10.20;;;4.78;;
37284;SDS011;23172;53.550;9.964;2022-09-17T00:45:23;15.15;;;7.53;;
37284;SDS011;23172;53.550;9.964;2022-09-17T00:50:27;15.75;;;9.13;;
37284;SDS011;23172;53.550;9.964;2022-09-17T00:55:34;14.90;;;5.45;;
37284;SDS011;23172;53.550;9.964;2022-09-17T01:00:38;18.27;;;9.60;;
37284;SDS011;23172;53.550;9.964;2022-09-17T01:05:41;18.08;;;10.68;;
37284;SDS011;23172;53.550;9.964;2022-09-17T01:10:51;14.02;;;7.07;;
37284;SDS011;23172;53.550;9.964;2022-09-17T01:16:05;11.35;;;6.60;;
37284;SDS011;23172;53.550;9.964;2022-09-17T01:21:36;15.97;;;7.53;;
37284;SDS011;23172;53.550;9.964;2022-09-17T01:26:54;14.10;;;6.90;;
37284;SDS011;23172;53.550;9.964;2022-09-17T01:32:16;14.77;;;6.53;;
37284;SDS011;23172;53.550;9.964;2022-09-17T01:37:26;13.20;;;5.63;;
37284;SDS011;23172;53.550;9.964;2022-09-17T01:42:33;18.27;;;10.52;;
37284;SDS011;23172;53.550;9.964;2022-09-17T01:47:41;16.13;;;9.77;;
37284;SDS011;23172;53.550;9.964;2022-09-17T01:52:48;11.77;;;5.65;;
37284;SDS011;23172;53.550;9.964;2022-09-17T01:57:52;17.33;;;7.27;;
37284;SDS011;23172;53.550;9.964;2022-09-17T02:03:00;15.65;;;6.70;;
37284;SDS011;23172;53.550;9.964;2022-09-17T02:08:07;12.75;;;6.38;;
37284;SDS011;23172;53.550;9.964;2022-09-17T02:13:12;16.38;;;8.48;;
37284;SDS011;23172;53.550;9.964;2022-09-17T02:18:21;12.98;;;5.72;;
37284;SDS011;23172;53.550;9.964;2022-09-17T02:23:28;13.27;;;5.70;;
37284;SDS011;23172;53.550;9.964;2022-09-17T02:28:36;16.90;;;7.47;;
37284;SDS011;23172;53.550;9.964;2022-09-17T02:33:46;13.27;;;5.75;;
37284;SDS011;23172;53.550;9.964;2022-09-17T02:38:53;12.27;;;4.97;;
37284;SDS011;23172;53.550;9.964;2022-09-17T02:44:00;11.13;;;4.30;;
37284;SDS011;23172;53.550;9.964;2022-09-17T02:49:17;10.77;;;4.40;;
37284;SDS011;23172;53.550;9.964;2022-09-17T02:54:33;11.85;;;5.32;;
37284;SDS011;23172;53.550;9.964;2022-09-17T02:59:45;15.20;;;5.20;;
37284;SDS011;23172;53.550;9.964;2022-09-17T03:04:54;11.55;;;4.65;;
37284;SDS011;23172;53.550;9.964;2022-09-17T03:09:57;10.52;;;4.35;;
37284;SDS011;23172;53.550;9.964;2022-09-17T03:14:58;11.77;;;4.82;;
37284;SDS011;23172;53.550;9.964;2022-09-17T03:20:02;21.13;;;12.35;;
37284;SDS011;23172;53.550;9.964;2022-09-17T03:25:04;15.93;;;9.33;;
37284;SDS011;23172;53.550;9.964;2022-09-17T03:30:07;13.68;;;5.70;;
37284;SDS011;23172;53.550;9.964;2022-09-17T03:35:10;9.98;;;3.50;;
37284;SDS011;23172;53.550;9.964;2022-09-17T03:40:12;11.10;;;5.80;;
37284;SDS011;23172;53.550;9.964;2022-09-17T03:45:14;12.03;;;5.47;;
37284;SDS011;23172;53.550;9.964;2022-09-17T03:50:17;12.13;;;4.03;;
37284;SDS011;23172;53.550;9.964;2022-09-17T03:55:19;9.30;;;3.50;;
37284;SDS011;23172;53.550;9.964;2022-09-17T04:00:21;12.77;;;7.50;;
37284;SDS011;23172;53.550;9.964;2022-09-17T04:05:25;6.85;;;2.50;;
37284;SDS011;23172;53.550;9.964;2022-09-17T04:10:27;8.43;;;3.37;;
37284;SDS011;23172;53.550;9.964;2022-09-17T04:15:29;8.70;;;5.83;;
37284;SDS011;23172;53.550;9.964;2022-09-17T04:20:32;7.43;;;3.60;;
37284;SDS011;23172;53.550;9.964;2022-09-17T04:25:34;8.60;;;2.77;;
37284;SDS011;23172;53.550;9.964;2022-09-17T04:30:36;8.27;;;3.07;;
37284;SDS011;23172;53.550;9.964;2022-09-17T04:35:40;10.90;;;5.57;;
37284;SDS011;23172;53.550;9.964;2022-09-17T04:40:42;6.88;;;2.47;;
37284;SDS011;23172;53.550;9.964;2022-09-17T04:45:45;10.48;;;2.83;;
37284;SDS011;23172;53.550;9.964;2022-09-17T04:50:49;7.25;;;2.90;;
37284;SDS011;23172;53.550;9.964;2022-09-17T04:55:51;7.33;;;3.47;;
37284;SDS011;23172;53.550;9.964;2022-09-17T05:00:53;8.77;;;3.08;;
37284;SDS011;23172;53.550;9.964;2022-09-17T05:05:56;8.30;;;2.58;;
37284;SDS011;23172;53.550;9.964;2022-09-17T05:10:58;8.10;;;2.50;;
37284;SDS011;23172;53.550;9.964;2022-09-17T05:15:59;7.78;;;2.83;;
37284;SDS011;23172;53.550;9.964;2022-09-17T05:21:03;8.00;;;3.15;;
37284;SDS011;23172;53.550;9.964;2022-09-17T05:26:05;9.60;;;3.25;;
37284;SDS011;23172;53.550;9.964;2022-09-17T05:31:07;8.13;;;3.22;;
37284;SDS011;23172;53.550;9.964;2022-09-17T05:36:10;9.77;;;2.80;;
37284;SDS011;23172;53.550;9.964;2022-09-17T05:41:12;7.93;;;2.78;;
37284;SDS011;23172;53.550;9.964;2022-09-17T05:46:14;7.17;;;2.90;;
37284;SDS011;23172;53.550;9.964;2022-09-17T05:51:17;7.80;;;2.80;;
37284;SDS011;23172;53.550;9.964;2022-09-17T05:56:19;6.70;;;2.50;;
37284;SDS011;23172;53.550;9.964;2022-09-17T06:01:21;6.25;;;2.53;;
37284;SDS011;23172;53.550;9.964;2022-09-17T06:06:24;9.02;;;3.58;;
37284;SDS011;23172;53.550;9.964;2022-09-17T06:11:29;10.48;;;5.85;;
37284;SDS011;23172;53.550;9.964;2022-09-17T06:16:31;10.27;;;3.33;;
37284;SDS011;23172;53.550;9.964;2022-09-17T06:21:35;8.40;;;2.67;;
37284;SDS011;23172;53.550;9.964;2022-09-17T06:26:36;7.07;;;2.23;;
37284;SDS011;23172;53.550;9.964;2022-09-17T06:31:38;10.93;;;3.10;;
37284;SDS011;23172;53.550;9.964;2022-09-17T06:36:42;6.97;;;3.40;;
37284;SDS011;23172;53.550;9.964;2022-09-17T06:41:43;6.60;;;2.95;;
37284;SDS011;23172;53.550;9.964;2022-09-17T06:46:47;8.00;;;2.23;;
37284;SDS011;23172;53.550;9.964;2022-09-17T06:51:51;5.20;;;1.70;;
37284;SDS011;23172;53.550;9.964;2022-09-17T06:56:53;4.07;;;1.38;;
37284;SDS011;23172;53.550;9.964;2022-09-17T07:01:54;4.93;;;2.53;;
37284;SDS011;23172;53.550;9.964;2022-09-17T07:06:58;6.50;;;3.17;;
37284;SDS011;23172;53.550;9.964;2022-09-17T07:12:00;4.97;;;1.70;;
37284;SDS011;23172;53.550;9.964;2022-09-17T07:17:02;4.82;;;1.73;;
37284;SDS011;23172;53.550;9.964;2022-09-17T07:22:05;3.85;;;1.30;;
37284;SDS011;23172;53.550;9.964;2022-09-17T07:27:07;4.87;;;2.07;;
37284;SDS011;23172;53.550;9.964;2022-09-17T07:32:09;4.20;;;1.83;;
37284;SDS011;23172;53.550;9.964;2022-09-17T07:37:12;5.50;;;3.10;;
37284;SDS011;23172;53.550;9.964;2022-09-17T07:42:14;4.35;;;1.52;;
37284;SDS011;23172;53.550;9.964;2022-09-17T07:57:20;3.90;;;1.48;;
37284;SDS011;23172;53.550;9.964;2022-09-17T08:02:22;3.30;;;1.23;;
37284;SDS011;23172;53.550;9.964;2022-09-17T08:07:25;10.38;;;1.67;;
37284;SDS011;23172;53.550;9.964;2022-09-17T08:12:27;3.47;;;1.08;;
37284;SDS011;23172;53.550;9.964;2022-09-17T08:17:28;8.00;;;1.58;;
37284;SDS011;23172;53.550;9.964;2022-09-17T08:22:32;2.78;;;1.25;;
37284;SDS011;23172;53.550;9.964;2022-09-17T08:27:33;4.03;;;1.17;;
37284;SDS011;23172;53.550;9.964;2022-09-17T08:32:37;8.07;;;1.73;;
37284;SDS011;23172;53.550;9.964;2022-09-17T08:37:40;3.95;;;1.33;;
37284;SDS011;23172;53.550;9.964;2022-09-17T08:42:45;3.95;;;1.38;;
37284;SDS011;23172;53.550;9.964;2022-09-17T08:47:53;4.65;;;1.20;;
37284;SDS011;23172;53.550;9.964;2022-09-17T08:53:05;5.63;;;1.48;;
37284;SDS011;23172;53.550;9.964;2022-09-17T09:04:03;3.80;;;1.20;;
37284;SDS011;23172;53.550;9.964;2022-09-17T09:09:20;4.13;;;1.20;;
37284;SDS011;23172;53.550;9.964;2022-09-17T09:14:26;1.98;;;1.30;;
37284;SDS011;23172;53.550;9.964;2022-09-17T09:19:33;2.00;;;0.90;;
37284;SDS011;23172;53.550;9.964;2022-09-17T09:24:44;2.60;;;1.33;;
37284;SDS011;23172;53.550;9.964;2022-09-17T09:30:00;3.10;;;0.65;;
37284;SDS011;23172;53.550;9.964;2022-09-17T09:35:11;2.75;;;0.75;;
37284;SDS011;23172;53.550;9.964;2022-09-17T09:40:22;2.50;;;0.95;;
37284;SDS011;23172;53.550;9.964;2022-09-17T09:45:34;1.33;;;0.77;;
37284;SDS011;23172;53.550;9.964;2022-09-17T09:50:46;5.32;;;3.30;;
37284;SDS011;23172;53.550;9.964;2022-09-17T09:56:02;4.75;;;2.78;;
37284;SDS011;23172;53.550;9.964;2022-09-17T10:01:10;2.35;;;1.40;;
37284;SDS011;23172;53.550;9.964;2022-09-17T10:06:14;2.58;;;1.88;;
37284;SDS011;23172;53.550;9.964;2022-09-17T10:11:19;3.50;;;1.10;;
37284;SDS011;23172;53.550;9.964;2022-09-17T10:16:23;12.80;;;9.57;;
37284;SDS011;23172;53.550;9.964;2022-09-17T10:26:29;2.80;;;0.85;;
37284;SDS011;23172;53.550;9.964;2022-09-17T10:31:44;3.88;;;1.67;;
37284;SDS011;23172;53.550;9.964;2022-09-17T10:36:47;4.55;;;1.50;;
37284;SDS011;23172;53.550;9.964;2022-09-17T10:41:54;2.28;;;1.40;;
37284;SDS011;23172;53.550;9.964;2022-09-17T10:47:09;4.75;;;3.25;;
37284;SDS011;23172;53.550;9.964;2022-09-17T10:52:18;4.07;;;1.20;;
37284;SDS011;23172;53.550;9.964;2022-09-17T10:57:29;3.22;;;1.10;;
37284;SDS011;23172;53.550;9.964;2022-09-17T11:02:59;3.05;;;1.40;;
37284;SDS011;23172;53.550;9.964;2022-09-17T11:08:19;2.00;;;0.80;;
37284;SDS011;23172;53.550;9.964;2022-09-17T11:13:29;4.57;;;1.70;;
37284;SDS011;23172;53.550;9.964;2022-09-17T11:18:38;5.93;;;2.17;;
37284;SDS011;23172;53.550;9.964;2022-09-17T11:23:47;4.78;;;1.60;;
37284;SDS011;23172;53.550;9.964;2022-09-17T11:29:11;3.88;;;1.20;;
37284;SDS011;23172;53.550;9.964;2022-09-17T11:34:31;4.07;;;1.92;;
37284;SDS011;23172;53.550;9.964;2022-09-17T11:39:38;4.35;;;3.00;;
37284;SDS011;23172;53.550;9.964;2022-09-17T11:44:48;4.10;;;2.88;;
37284;SDS011;23172;53.550;9.964;2022-09-17T11:49:55;3.22;;;1.60;;
37284;SDS011;23172;53.550;9.964;2022-09-17T11:55:04;5.75;;;2.20;;
37284;SDS011;23172;53.550;9.964;2022-09-17T12:00:18;10.80;;;5.32;;
37284;SDS011;23172;53.550;9.964;2022-09-17T12:05:24;5.85;;;2.38;;
37284;SDS011;23172;53.550;9.964;2022-09-17T12:10:37;16.15;;;11.75;;
37284;SDS011;23172;53.550;9.964;2022-09-17T12:15:48;5.65;;;2.78;;
37284;SDS011;23172;53.550;9.964;2022-09-17T12:20:52;5.75;;;2.20;;
37284;SDS011;23172;53.550;9.964;2022-09-17T12:26:01;6.53;;;4.07;;
37284;SDS011;23172;53.550;9.964;2022-09-17T12:31:16;5.10;;;2.55;;
37284;SDS011;23172;53.550;9.964;2022-09-17T12:36:29;4.13;;;2.30;;
37284;SDS011;23172;53.550;9.964;2022-09-17T12:41:44;6.75;;;2.63;;
37284;SDS011;23172;53.550;9.964;2022-09-17T12:46:58;6.20;;;2.92;;
37284;SDS011;23172;53.550;9.964;2022-09-17T12:52:11;10.20;;;5.43;;
37284;SDS011;23172;53.550;9.964;2022-09-17T12:57:21;9.48;;;4.45;;
37284;SDS011;23172;53.550;9.964;2022-09-17T13:02:34;12.00;;;6.05;;
37284;SDS011;23172;53.550;9.964;2022-09-17T13:13:13;7.88;;;4.00;;
37284;SDS011;23172;53.550;9.964;2022-09-17T13:18:31;7.10;;;3.17;;
37284;SDS011;23172;53.550;9.964;2022-09-17T13:23:40;10.57;;;5.53;;
37284;SDS011;23172;53.550;9.964;2022-09-17T13:28:44;9.55;;;4.78;;
37284;SDS011;23172;53.550;9.964;2022-09-17T13:33:52;7.80;;;2.88;;
37284;SDS011;23172;53.550;9.964;2022-09-17T13:38:56;5.63;;;3.63;;
37284;SDS011;23172;53.550;9.964;2022-09-17T13:43:58;6.53;;;3.53;;
37284;SDS011;23172;53.550;9.964;2022-09-17T13:49:03;6.20;;;2.30;;
37284;SDS011;23172;53.550;9.964;2022-09-17T13:54:11;23.20;;;14.98;;
37284;SDS011;23172;53.550;9.964;2022-09-17T13:59:15;14.25;;;10.07;;
37284;SDS011;23172;53.550;9.964;2022-09-17T14:04:36;13.85;;;6.85;;
37284;SDS011;23172;53.550;9.964;2022-09-17T14:09:50;9.45;;;5.85;;
37284;SDS011;23172;53.550;9.964;2022-09-17T14:14:54;4.00;;;2.60;;
37284;SDS011;23172;53.550;9.964;2022-09-17T14:19:57;3.15;;;1.65;;
37284;SDS011;23172;53.550;9.964;2022-09-17T14:25:02;5.20;;;2.90;;
37284;SDS011;23172;53.550;9.964;2022-09-17T14:30:16;19.80;;;13.67;;
37284;SDS011;23172;53.550;9.964;2022-09-17T14:35:22;9.05;;;6.03;;
37284;SDS011;23172;53.550;9.964;2022-09-17T14:40:29;6.20;;;4.20;;
37284;SDS011;23172;53.550;9.964;2022-09-17T14:45:35;4.00;;;1.50;;
37284;SDS011;23172;53.550;9.964;2022-09-17T14:50:43;4.75;;;1.17;;
37284;SDS011;23172;53.550;9.964;2022-09-17T14:55:45;2.60;;;1.27;;
37284;SDS011;23172;53.550;9.964;2022-09-17T15:00:49;2.45;;;1.20;;
37284;SDS011;23172;53.550;9.964;2022-09-17T15:05:54;5.95;;;1.35;;
37284;SDS011;23172;53.550;9.964;2022-09-17T15:10:56;5.37;;;1.93;;
37284;SDS011;23172;53.550;9.964;2022-09-17T15:16:00;10.82;;;3.58;;
37284;SDS011;23172;53.550;9.964;2022-09-17T15:21:14;7.70;;;2.95;;
37284;SDS011;23172;53.550;9.964;2022-09-17T15:26:21;7.67;;;4.67;;
37284;SDS011;23172;53.550;9.964;2022-09-17T15:31:27;21.60;;;13.77;;
37284;SDS011;23172;53.550;9.964;2022-09-17T15:36:31;3.70;;;1.23;;
37284;SDS011;23172;53.550;9.964;2022-09-17T15:41:33;4.60;;;1.75;;
37284;SDS011;23172;53.550;9.964;2022-09-17T15:46:36;5.80;;;3.03;;
37284;SDS011;23172;53.550;9.964;2022-09-17T15:51:39;3.75;;;1.92;;
37284;SDS011;23172;53.550;9.964;2022-09-17T15:56:41;4.20;;;1.58;;
37284;SDS011;23172;53.550;9.964;2022-09-17T16:01:52;2.67;;;1.13;;
37284;SDS011;23172;53.550;9.964;2022-09-17T16:06:58;2.20;;;1.20;;
37284;SDS011;23172;53.550;9.964;2022-09-17T16:12:01;1.80;;;0.90;;
37284;SDS011;23172;53.550;9.964;2022-09-17T16:22:44;2.83;;;1.42;;
37284;SDS011;23172;53.550;9.964;2022-09-17T16:27:48;2.17;;;1.20;;
37284;SDS011;23172;53.550;9.964;2022-09-17T16:32:52;2.92;;;1.30;;
37284;SDS011;23172;53.550;9.964;2022-09-17T16:37:55;3.33;;;1.77;;
37284;SDS011;23172;53.550;9.964;2022-09-17T16:42:58;2.37;;;1.60;;
37284;SDS011;23172;53.550;9.964;2022-09-17T16:48:01;4.60;;;2.20;;
37284;SDS011;23172;53.550;9.964;2022-09-17T16:53:05;2.65;;;1.55;;
37284;SDS011;23172;53.550;9.964;2022-09-17T16:58:07;3.40;;;2.30;;
37284;SDS011;23172;53.550;9.964;2022-09-17T17:03:09;2.97;;;1.95;;
37284;SDS011;23172;53.550;9.964;2022-09-17T17:08:14;2.87;;;1.83;;
37284;SDS011;23172;53.550;9.964;2022-09-17T17:13:15;9.43;;;7.18;;
37284;SDS011;23172;53.550;9.964;2022-09-17T17:18:18;4.63;;;3.40;;
37284;SDS011;23172;53.550;9.964;2022-09-17T17:23:21;3.92;;;2.22;;
37284;SDS011;23172;53.550;9.964;2022-09-17T17:28:23;3.97;;;2.83;;
37284;SDS011;23172;53.550;9.964;2022-09-17T17:33:25;6.07;;;5.33;;
37284;SDS011;23172;53.550;9.964;2022-09-17T17:38:28;3.97;;;2.17;;
37284;SDS011;23172;53.550;9.964;2022-09-17T17:43:30;3.80;;;2.33;;
37284;SDS011;23172;53.550;9.964;2022-09-17T17:48:32;4.20;;;3.00;;
37284;SDS011;23172;53.550;9.964;2022-09-17T17:53:35;2.93;;;1.87;;
37284;SDS011;23172;53.550;9.964;2022-09-17T17:58:38;3.10;;;1.65;;
37284;SDS011;23172;53.550;9.964;2022-09-17T18:03:41;3.35;;;1.40;;
37284;SDS011;23172;53.550;9.964;2022-09-17T18:08:44;3.80;;;1.83;;
37284;SDS011;23172;53.550;9.964;2022-09-17T18:13:49;9.20;;;8.05;;
37284;SDS011;23172;53.550;9.964;2022-09-17T18:18:51;4.22;;;2.90;;
37284;SDS011;23172;53.550;9.964;2022-09-17T18:23:56;5.75;;;3.20;;
37284;SDS011;23172;53.550;9.964;2022-09-17T18:28:58;4.00;;;2.85;;
37284;SDS011;23172;53.550;9.964;2022-09-17T18:34:00;3.17;;;2.25;;
37284;SDS011;23172;53.550;9.964;2022-09-17T18:39:05;4.35;;;2.47;;
37284;SDS011;23172;53.550;9.964;2022-09-17T18:44:08;6.20;;;4.40;;
37284;SDS011;23172;53.550;9.964;2022-09-17T18:49:11;5.60;;;2.40;;
37284;SDS011;23172;53.550;9.964;2022-09-17T18:54:14;4.75;;;2.30;;
37284;SDS011;23172;53.550;9.964;2022-09-17T18:59:15;6.77;;;3.60;;
37284;SDS011;23172;53.550;9.964;2022-09-17T19:04:17;7.07;;;3.47;;
37284;SDS011;23172;53.550;9.964;2022-09-17T19:09:20;7.83;;;3.53;;
37284;SDS011;23172;53.550;9.964;2022-09-17T19:14:22;9.68;;;4.88;;
37284;SDS011;23172;53.550;9.964;2022-09-17T19:19:24;9.00;;;3.55;;
37284;SDS011;23172;53.550;9.964;2022-09-17T19:24:27;9.93;;;4.88;;
